sensor_id;sensor_type;location;lat;lon;timestamp;temperature;humidity
5176;DHT22;2607;50.934;6.934;2023-06-01T00:00:16;18.90;92.90
5176;DHT22;2607;50.934;6.934;2023-06-01T00:02:43;18.90;93.10
5176;DHT22;2607;50.934;6.934;2023-06-01T00:05:09;18.90;93.40
5176;DHT22;2607;50.934;6.934;2023-06-01T00:07:34;18.90;93.60
5176;DHT22;2607;50.934;6.934;2023-06-01T00:10:00;18.80;93.80
5176;DHT22;2607;50.934;6.934;2023-06-01T00:12:26;18.80;93.90
5176;DHT22;2607;50.934;6.934;2023-06-01T00:14:52;18.70;94.00
5176;DHT22;2607;50.934;6.934;2023-06-01T00:17:18;18.60;94.20
5176;DHT22;2607;50.934;6.934;2023-06-01T00:19:45;18.60;94.40
5176;DHT22;2607;50.934;6.934;2023-06-01T00:22:11;18.60;94.50
5176;DHT22;2607;50.934;6.934;2023-06-01T00:24:37;18.60;94.70
5176;DHT22;2607;50.934;6.934;2023-06-01T00:27:03;18.60;94.90
5176;DHT22;2607;50.934;6.934;2023-06-01T00:29:29;18.50;95.10
5176;DHT22;2607;50.934;6.934;2023-06-01T00:31:55;18.50;95.40
5176;DHT22;2607;50.934;6.934;2023-06-01T00:34:20;18.40;95.70
5176;DHT22;2607;50.934;6.934;2023-06-01T00:36:46;18.40;95.90
5176;DHT22;2607;50.934;6.934;2023-06-01T00:39:12;18.40;96.00
5176;DHT22;2607;50.934;6.934;2023-06-01T00:41:37;18.40;96.20
5176;DHT22;2607;50.934;6.934;2023-06-01T00:44:03;18.30;96.30
5176;DHT22;2607;50.934;6.934;2023-06-01T00:46:30;18.30;96.50
5176;DHT22;2607;50.934;6.934;2023-06-01T00:48:56;18.30;96.80
5176;DHT22;2607;50.934;6.934;2023-06-01T00:51:23;18.20;97.00
5176;DHT22;2607;50.934;6.934;2023-06-01T00:53:49;18.20;97.00
5176;DHT22;2607;50.934;6.934;2023-06-01T00:56:15;18.20;97.20
5176;DHT22;2607;50.934;6.934;2023-06-01T00:58:41;18.20;97.40
5176;DHT22;2607;50.934;6.934;2023-06-01T01:01:07;18.10;97.60
5176;DHT22;2607;50.934;6.934;2023-06-01T01:03:48;18.10;97.80
5176;DHT22;2607;50.934;6.934;2023-06-01T01:06:39;18.10;98.20
5176;DHT22;2607;50.934;6.934;2023-06-01T01:11:53;18.00;98.70
5176;DHT22;2607;50.934;6.934;2023-06-01T01:14:28;18.00;99.00
5176;DHT22;2607;50.934;6.934;2023-06-01T01:17:02;17.90;99.30
5176;DHT22;2607;50.934;6.934;2023-06-01T01:22:20;17.90;99.40
5176;DHT22;2607;50.934;6.934;2023-06-01T01:25:05;17.80;99.40
5176;DHT22;2607;50.934;6.934;2023-06-01T01:30:28;17.80;99.80
5176;DHT22;2607;50.934;6.934;2023-06-01T01:32:56;17.70;99.90
5176;DHT22;2607;50.934;6.934;2023-06-01T01:35:23;17.70;99.90
5176;DHT22;2607;50.934;6.934;2023-06-01T01:37:50;17.60;99.90
5176;DHT22;2607;50.934;6.934;2023-06-01T01:40:17;17.60;99.90
5176;DHT22;2607;50.934;6.934;2023-06-01T01:42:42;17.50;99.90
5176;DHT22;2607;50.934;6.934;2023-06-01T01:45:08;17.50;99.90
5176;DHT22;2607;50.934;6.934;2023-06-01T01:47:36;17.50;99.90
5176;DHT22;2607;50.934;6.934;2023-06-01T01:50:09;17.40;99.90
5176;DHT22;2607;50.934;6.934;2023-06-01T01:52:40;17.40;99.90
5176;DHT22;2607;50.934;6.934;2023-06-01T01:55:08;17.40;99.90
5176;DHT22;2607;50.934;6.934;2023-06-01T01:57:35;17.30;99.90
5176;DHT22;2607;50.934;6.934;2023-06-01T02:00:02;17.30;99.90
5176;DHT22;2607;50.934;6.934;2023-06-01T02:02:28;17.30;99.90
5176;DHT22;2607;50.934;6.934;2023-06-01T02:04:55;17.20;99.90
5176;DHT22;2607;50.934;6.934;2023-06-01T02:07:21;17.20;99.90
5176;DHT22;2607;50.934;6.934;2023-06-01T02:09:47;17.20;99.90
5176;DHT22;2607;50.934;6.934;2023-06-01T02:12:12;17.20;99.90
5176;DHT22;2607;50.934;6.934;2023-06-01T02:14:38;17.10;99.90
5176;DHT22;2607;50.934;6.934;2023-06-01T02:17:04;17.10;99.90
5176;DHT22;2607;50.934;6.934;2023-06-01T02:19:31;17.10;99.90
5176;DHT22;2607;50.934;6.934;2023-06-01T02:21:57;17.10;99.90
5176;DHT22;2607;50.934;6.934;2023-06-01T02:24:22;17.00;99.90
5176;DHT22;2607;50.934;6.934;2023-06-01T02:26:48;17.00;99.90
5176;DHT22;2607;50.934;6.934;2023-06-01T02:29:17;17.00;99.90
5176;DHT22;2607;50.934;6.934;2023-06-01T02:31:45;17.00;99.90
5176;DHT22;2607;50.934;6.934;2023-06-01T02:34:11;16.90;99.90
5176;DHT22;2607;50.934;6.934;2023-06-01T02:36:36;16.90;99.90
5176;DHT22;2607;50.934;6.934;2023-06-01T02:39:02;16.80;99.90
5176;DHT22;2607;50.934;6.934;2023-06-01T02:41:27;16.80;99.90
5176;DHT22;2607;50.934;6.934;2023-06-01T02:43:53;16.80;99.90
5176;DHT22;2607;50.934;6.934;2023-06-01T02:46:19;16.80;99.90
5176;DHT22;2607;50.934;6.934;2023-06-01T02:48:45;16.80;99.90
5176;DHT22;2607;50.934;6.934;2023-06-01T02:51:11;16.70;99.90
5176;DHT22;2607;50.934;6.934;2023-06-01T02:53:39;16.70;99.90
5176;DHT22;2607;50.934;6.934;2023-06-01T02:56:05;16.70;99.90
5176;DHT22;2607;50.934;6.934;2023-06-01T02:58:31;16.70;99.90
5176;DHT22;2607;50.934;6.934;2023-06-01T03:00:56;16.60;99.90
5176;DHT22;2607;50.934;6.934;2023-06-01T03:03:25;16.60;99.90
5176;DHT22;2607;50.934;6.934;2023-06-01T03:05:51;16.60;99.90
5176;DHT22;2607;50.934;6.934;2023-06-01T03:08:17;16.60;99.90
5176;DHT22;2607;50.934;6.934;2023-06-01T03:10:43;16.50;99.90
5176;DHT22;2607;50.934;6.934;2023-06-01T03:13:09;16.50;99.90
5176;DHT22;2607;50.934;6.934;2023-06-01T03:15:34;16.50;99.90
5176;DHT22;2607;50.934;6.934;2023-06-01T03:18:00;16.50;99.90
5176;DHT22;2607;50.934;6.934;2023-06-01T03:20:29;16.40;99.90
5176;DHT22;2607;50.934;6.934;2023-06-01T03:22:54;16.40;99.90
5176;DHT22;2607;50.934;6.934;2023-06-01T03:25:20;16.40;99.90
5176;DHT22;2607;50.934;6.934;2023-06-01T03:27:46;16.40;99.90
5176;DHT22;2607;50.934;6.934;2023-06-01T03:30:12;16.40;99.90
5176;DHT22;2607;50.934;6.934;2023-06-01T03:32:38;16.30;99.90
5176;DHT22;2607;50.934;6.934;2023-06-01T03:35:05;16.30;99.90
5176;DHT22;2607;50.934;6.934;2023-06-01T03:37:33;16.30;99.90
5176;DHT22;2607;50.934;6.934;2023-06-01T03:40:00;16.30;99.90
5176;DHT22;2607;50.934;6.934;2023-06-01T03:42:26;16.20;99.90
5176;DHT22;2607;50.934;6.934;2023-06-01T03:44:51;16.20;99.90
5176;DHT22;2607;50.934;6.934;2023-06-01T03:47:17;16.20;99.90
5176;DHT22;2607;50.934;6.934;2023-06-01T03:49:43;16.20;99.90
5176;DHT22;2607;50.934;6.934;2023-06-01T03:52:08;16.10;99.90
5176;DHT22;2607;50.934;6.934;2023-06-01T03:54:35;16.10;99.90
5176;DHT22;2607;50.934;6.934;2023-06-01T03:57:01;16.10;99.90
5176;DHT22;2607;50.934;6.934;2023-06-01T03:59:26;16.10;99.90
5176;DHT22;2607;50.934;6.934;2023-06-01T04:01:52;16.10;99.90
5176;DHT22;2607;50.934;6.934;2023-06-01T04:04:22;16.00;99.90
5176;DHT22;2607;50.934;6.934;2023-06-01T04:06:49;16.00;99.90
5176;DHT22;2607;50.934;6.934;2023-06-01T04:09:15;16.00;99.90
5176;DHT22;2607;50.934;6.934;2023-06-01T04:11:41;16.00;99.90
5176;DHT22;2607;50.934;6.934;2023-06-01T04:14:06;16.00;99.90
5176;DHT22;2607;50.934;6.934;2023-06-01T04:16:32;15.90;99.90
5176;DHT22;2607;50.934;6.934;2023-06-01T04:18:57;15.90;99.90
5176;DHT22;2607;50.934;6.934;2023-06-01T04:21:23;15.90;99.90
5176;DHT22;2607;50.934;6.934;2023-06-01T04:23:49;15.90;99.90
5176;DHT22;2607;50.934;6.934;2023-06-01T04:26:15;15.90;99.90
5176;DHT22;2607;50.934;6.934;2023-06-01T04:28:42;15.90;99.90
5176;DHT22;2607;50.934;6.934;2023-06-01T04:31:14;15.80;99.90
5176;DHT22;2607;50.934;6.934;2023-06-01T04:33:46;15.80;99.90
5176;DHT22;2607;50.934;6.934;2023-06-01T04:36:17;15.80;99.90
5176;DHT22;2607;50.934;6.934;2023-06-01T04:38:47;15.80;99.90
5176;DHT22;2607;50.934;6.934;2023-06-01T04:41:17;15.80;99.90
5176;DHT22;2607;50.934;6.934;2023-06-01T04:43:42;15.80;99.90
5176;DHT22;2607;50.934;6.934;2023-06-01T04:46:08;15.80;99.90
5176;DHT22;2607;50.934;6.934;2023-06-01T04:48:33;15.80;99.90
5176;DHT22;2607;50.934;6.934;2023-06-01T04:50:59;15.80;99.90
5176;DHT22;2607;50.934;6.934;2023-06-01T04:53:25;15.80;99.90
5176;DHT22;2607;50.934;6.934;2023-06-01T04:55:51;15.80;99.90
5176;DHT22;2607;50.934;6.934;2023-06-01T04:58:17;15.80;99.90
5176;DHT22;2607;50.934;6.934;2023-06-01T05:00:43;15.80;99.90
5176;DHT22;2607;50.934;6.934;2023-06-01T05:03:08;15.70;99.90
5176;DHT22;2607;50.934;6.934;2023-06-01T05:05:34;15.70;99.90
5176;DHT22;2607;50.934;6.934;2023-06-01T05:07:59;15.70;99.90
5176;DHT22;2607;50.934;6.934;2023-06-01T05:10:25;15.70;99.90
5176;DHT22;2607;50.934;6.934;2023-06-01T05:12:50;15.70;99.90
5176;DHT22;2607;50.934;6.934;2023-06-01T05:15:16;15.70;99.90
5176;DHT22;2607;50.934;6.934;2023-06-01T05:17:42;15.70;99.90
5176;DHT22;2607;50.934;6.934;2023-06-01T05:20:09;15.60;99.90
5176;DHT22;2607;50.934;6.934;2023-06-01T05:22:36;15.60;99.90
5176;DHT22;2607;50.934;6.934;2023-06-01T05:25:02;15.60;99.90
5176;DHT22;2607;50.934;6.934;2023-06-01T05:27:28;15.60;99.90
5176;DHT22;2607;50.934;6.934;2023-06-01T05:29:54;15.60;99.90
5176;DHT22;2607;50.934;6.934;2023-06-01T05:32:20;15.60;99.90
5176;DHT22;2607;50.934;6.934;2023-06-01T05:34:46;15.60;99.90
5176;DHT22;2607;50.934;6.934;2023-06-01T05:37:12;15.60;99.90
5176;DHT22;2607;50.934;6.934;2023-06-01T05:39:37;15.60;99.90
5176;DHT22;2607;50.934;6.934;2023-06-01T05:42:03;15.60;99.90
5176;DHT22;2607;50.934;6.934;2023-06-01T05:44:31;15.60;99.90
5176;DHT22;2607;50.934;6.934;2023-06-01T05:46:57;15.60;99.90
5176;DHT22;2607;50.934;6.934;2023-06-01T05:49:22;15.60;99.90
5176;DHT22;2607;50.934;6.934;2023-06-01T05:51:48;15.60;99.90
5176;DHT22;2607;50.934;6.934;2023-06-01T05:54:13;15.60;99.90
5176;DHT22;2607;50.934;6.934;2023-06-01T05:56:39;15.70;99.90
5176;DHT22;2607;50.934;6.934;2023-06-01T05:59:06;15.60;99.90
5176;DHT22;2607;50.934;6.934;2023-06-01T06:01:31;15.70;99.90
5176;DHT22;2607;50.934;6.934;2023-06-01T06:03:57;15.70;99.90
5176;DHT22;2607;50.934;6.934;2023-06-01T06:06:23;15.70;99.90
5176;DHT22;2607;50.934;6.934;2023-06-01T06:08:49;15.60;99.90
5176;DHT22;2607;50.934;6.934;2023-06-01T06:11:15;15.60;99.90
5176;DHT22;2607;50.934;6.934;2023-06-01T06:13:41;15.60;99.90
5176;DHT22;2607;50.934;6.934;2023-06-01T06:16:07;15.60;99.90
5176;DHT22;2607;50.934;6.934;2023-06-01T06:18:32;15.60;99.90
5176;DHT22;2607;50.934;6.934;2023-06-01T06:20:58;15.60;99.90
5176;DHT22;2607;50.934;6.934;2023-06-01T06:23:23;15.60;99.90
5176;DHT22;2607;50.934;6.934;2023-06-01T06:25:49;15.60;99.90
5176;DHT22;2607;50.934;6.934;2023-06-01T06:28:15;15.60;99.90
5176;DHT22;2607;50.934;6.934;2023-06-01T06:30:41;15.60;99.90
5176;DHT22;2607;50.934;6.934;2023-06-01T06:33:06;15.70;99.90
5176;DHT22;2607;50.934;6.934;2023-06-01T06:35:32;15.70;99.90
5176;DHT22;2607;50.934;6.934;2023-06-01T06:37:58;15.80;99.90
5176;DHT22;2607;50.934;6.934;2023-06-01T06:40:24;15.70;99.90
5176;DHT22;2607;50.934;6.934;2023-06-01T06:42:49;15.70;99.90
5176;DHT22;2607;50.934;6.934;2023-06-01T06:45:16;15.70;99.90
5176;DHT22;2607;50.934;6.934;2023-06-01T06:47:42;15.70;99.90
5176;DHT22;2607;50.934;6.934;2023-06-01T06:50:11;15.70;99.90
5176;DHT22;2607;50.934;6.934;2023-06-01T06:52:37;15.70;99.90
5176;DHT22;2607;50.934;6.934;2023-06-01T06:55:02;15.80;99.90
5176;DHT22;2607;50.934;6.934;2023-06-01T06:57:28;15.80;99.90
5176;DHT22;2607;50.934;6.934;2023-06-01T06:59:53;15.80;99.90
5176;DHT22;2607;50.934;6.934;2023-06-01T07:02:19;15.80;99.90
5176;DHT22;2607;50.934;6.934;2023-06-01T07:04:45;15.80;99.90
5176;DHT22;2607;50.934;6.934;2023-06-01T07:07:11;15.80;99.90
5176;DHT22;2607;50.934;6.934;2023-06-01T07:09:36;15.80;99.90
5176;DHT22;2607;50.934;6.934;2023-06-01T07:12:02;15.80;99.90
5176;DHT22;2607;50.934;6.934;2023-06-01T07:14:27;15.80;99.90
5176;DHT22;2607;50.934;6.934;2023-06-01T07:16:53;15.80;99.90
5176;DHT22;2607;50.934;6.934;2023-06-01T07:19:18;15.80;99.90
5176;DHT22;2607;50.934;6.934;2023-06-01T07:21:44;15.70;99.90
5176;DHT22;2607;50.934;6.934;2023-06-01T07:24:10;15.80;99.90
5176;DHT22;2607;50.934;6.934;2023-06-01T07:26:36;15.80;99.90
5176;DHT22;2607;50.934;6.934;2023-06-01T07:29:01;15.80;99.90
5176;DHT22;2607;50.934;6.934;2023-06-01T07:31:27;15.80;99.90
5176;DHT22;2607;50.934;6.934;2023-06-01T07:33:56;15.70;99.90
5176;DHT22;2607;50.934;6.934;2023-06-01T07:36:22;15.80;99.90
5176;DHT22;2607;50.934;6.934;2023-06-01T07:38:49;15.80;99.90
5176;DHT22;2607;50.934;6.934;2023-06-01T07:41:15;15.80;99.90
5176;DHT22;2607;50.934;6.934;2023-06-01T07:43:41;15.80;99.90
5176;DHT22;2607;50.934;6.934;2023-06-01T07:46:07;15.80;99.90
5176;DHT22;2607;50.934;6.934;2023-06-01T07:48:32;15.80;99.90
5176;DHT22;2607;50.934;6.934;2023-06-01T07:51:02;15.80;99.90
5176;DHT22;2607;50.934;6.934;2023-06-01T07:53:28;15.70;99.90
5176;DHT22;2607;50.934;6.934;2023-06-01T07:55:54;15.80;99.90
5176;DHT22;2607;50.934;6.934;2023-06-01T07:58:19;15.80;99.90
5176;DHT22;2607;50.934;6.934;2023-06-01T08:00:45;15.80;99.90
5176;DHT22;2607;50.934;6.934;2023-06-01T08:03:10;15.80;99.90
5176;DHT22;2607;50.934;6.934;2023-06-01T08:05:36;15.80;99.90
5176;DHT22;2607;50.934;6.934;2023-06-01T08:08:02;15.80;99.90
5176;DHT22;2607;50.934;6.934;2023-06-01T08:10:28;15.80;99.90
5176;DHT22;2607;50.934;6.934;2023-06-01T08:12:54;15.80;99.90
5176;DHT22;2607;50.934;6.934;2023-06-01T08:15:22;15.80;99.90
5176;DHT22;2607;50.934;6.934;2023-06-01T08:17:49;15.90;99.90
5176;DHT22;2607;50.934;6.934;2023-06-01T08:20:16;15.90;99.90
5176;DHT22;2607;50.934;6.934;2023-06-01T08:22:47;15.90;99.90
5176;DHT22;2607;50.934;6.934;2023-06-01T08:25:12;15.90;99.90
5176;DHT22;2607;50.934;6.934;2023-06-01T08:27:39;16.00;99.90
5176;DHT22;2607;50.934;6.934;2023-06-01T08:30:06;16.00;99.90
5176;DHT22;2607;50.934;6.934;2023-06-01T08:32:32;16.10;99.90
5176;DHT22;2607;50.934;6.934;2023-06-01T08:34:58;16.00;99.90
5176;DHT22;2607;50.934;6.934;2023-06-01T08:37:23;16.00;99.90
5176;DHT22;2607;50.934;6.934;2023-06-01T08:39:49;16.10;99.90
5176;DHT22;2607;50.934;6.934;2023-06-01T08:45:12;16.20;99.90
5176;DHT22;2607;50.934;6.934;2023-06-01T08:47:40;16.20;99.90
5176;DHT22;2607;50.934;6.934;2023-06-01T08:50:07;16.20;99.90
5176;DHT22;2607;50.934;6.934;2023-06-01T08:52:34;16.20;99.90
5176;DHT22;2607;50.934;6.934;2023-06-01T08:55:02;16.30;99.90
5176;DHT22;2607;50.934;6.934;2023-06-01T08:57:28;16.40;99.90
5176;DHT22;2607;50.934;6.934;2023-06-01T08:59:55;16.40;99.90
5176;DHT22;2607;50.934;6.934;2023-06-01T09:02:21;16.40;99.90
5176;DHT22;2607;50.934;6.934;2023-06-01T09:04:47;16.50;99.90
5176;DHT22;2607;50.934;6.934;2023-06-01T09:07:13;16.60;99.90
5176;DHT22;2607;50.934;6.934;2023-06-01T09:09:39;16.60;99.90
5176;DHT22;2607;50.934;6.934;2023-06-01T09:14:43;16.80;99.90
5176;DHT22;2607;50.934;6.934;2023-06-01T09:17:21;16.90;99.90
5176;DHT22;2607;50.934;6.934;2023-06-01T09:19:47;17.00;99.90
5176;DHT22;2607;50.934;6.934;2023-06-01T09:22:13;17.10;99.90
5176;DHT22;2607;50.934;6.934;2023-06-01T09:24:39;17.20;99.90
5176;DHT22;2607;50.934;6.934;2023-06-01T09:27:08;17.20;99.90
5176;DHT22;2607;50.934;6.934;2023-06-01T09:29:33;17.30;99.00
5176;DHT22;2607;50.934;6.934;2023-06-01T09:32:02;17.30;99.00
5176;DHT22;2607;50.934;6.934;2023-06-01T09:34:28;17.40;98.70
5176;DHT22;2607;50.934;6.934;2023-06-01T09:36:55;17.50;98.00
5176;DHT22;2607;50.934;6.934;2023-06-01T09:39:23;17.50;97.90
5176;DHT22;2607;50.934;6.934;2023-06-01T09:41:59;17.60;97.80
5176;DHT22;2607;50.934;6.934;2023-06-01T09:44:34;17.70;97.40
5176;DHT22;2607;50.934;6.934;2023-06-01T09:47:04;17.80;97.00
5176;DHT22;2607;50.934;6.934;2023-06-01T09:49:30;17.80;96.90
5176;DHT22;2607;50.934;6.934;2023-06-01T09:55:07;18.00;95.90
5176;DHT22;2607;50.934;6.934;2023-06-01T09:57:33;18.10;95.80
5176;DHT22;2607;50.934;6.934;2023-06-01T10:00:01;18.10;95.50
5176;DHT22;2607;50.934;6.934;2023-06-01T10:02:29;18.10;95.50
5176;DHT22;2607;50.934;6.934;2023-06-01T10:04:56;18.20;95.20
5176;DHT22;2607;50.934;6.934;2023-06-01T10:07:30;18.30;95.10
5176;DHT22;2607;50.934;6.934;2023-06-01T10:09:57;18.40;94.50
5176;DHT22;2607;50.934;6.934;2023-06-01T10:12:26;18.40;93.90
5176;DHT22;2607;50.934;6.934;2023-06-01T10:14:54;18.50;93.20
5176;DHT22;2607;50.934;6.934;2023-06-01T10:17:20;18.50;92.60
5176;DHT22;2607;50.934;6.934;2023-06-01T10:19:47;18.60;92.80
5176;DHT22;2607;50.934;6.934;2023-06-01T10:22:13;18.70;93.00
5176;DHT22;2607;50.934;6.934;2023-06-01T10:24:40;18.70;92.60
5176;DHT22;2607;50.934;6.934;2023-06-01T10:29:48;18.90;91.60
5176;DHT22;2607;50.934;6.934;2023-06-01T10:35:01;19.00;91.90
5176;DHT22;2607;50.934;6.934;2023-06-01T10:37:26;19.10;91.70
5176;DHT22;2607;50.934;6.934;2023-06-01T10:39:52;19.10;91.70
5176;DHT22;2607;50.934;6.934;2023-06-01T10:52:35;19.50;91.60
5176;DHT22;2607;50.934;6.934;2023-06-01T10:57:37;19.60;91.50
5176;DHT22;2607;50.934;6.934;2023-06-01T11:03:01;19.70;90.80
5176;DHT22;2607;50.934;6.934;2023-06-01T11:07:59;19.90;90.70
5176;DHT22;2607;50.934;6.934;2023-06-01T11:13:19;20.20;90.00
5176;DHT22;2607;50.934;6.934;2023-06-01T11:18:50;20.40;90.20
5176;DHT22;2607;50.934;6.934;2023-06-01T11:21:24;20.50;90.20
5176;DHT22;2607;50.934;6.934;2023-06-01T11:23:51;20.60;90.30
5176;DHT22;2607;50.934;6.934;2023-06-01T11:26:21;20.70;90.20
5176;DHT22;2607;50.934;6.934;2023-06-01T11:28:51;20.80;89.50
5176;DHT22;2607;50.934;6.934;2023-06-01T11:31:19;21.00;88.80
5176;DHT22;2607;50.934;6.934;2023-06-01T11:33:50;21.10;88.70
5176;DHT22;2607;50.934;6.934;2023-06-01T11:36:22;21.20;86.70
5176;DHT22;2607;50.934;6.934;2023-06-01T11:38:51;21.40;86.10
5176;DHT22;2607;50.934;6.934;2023-06-01T11:41:18;21.50;85.90
5176;DHT22;2607;50.934;6.934;2023-06-01T11:43:44;21.60;86.00
5176;DHT22;2607;50.934;6.934;2023-06-01T11:46:10;21.70;86.60
5176;DHT22;2607;50.934;6.934;2023-06-01T11:48:36;21.80;86.10
5176;DHT22;2607;50.934;6.934;2023-06-01T11:51:02;21.90;85.20
5176;DHT22;2607;50.934;6.934;2023-06-01T11:53:31;22.00;83.50
5176;DHT22;2607;50.934;6.934;2023-06-01T11:56:00;22.10;82.70
5176;DHT22;2607;50.934;6.934;2023-06-01T11:58:28;22.20;81.70
5176;DHT22;2607;50.934;6.934;2023-06-01T12:00:56;22.30;81.30
5176;DHT22;2607;50.934;6.934;2023-06-01T12:03:22;22.30;81.20
5176;DHT22;2607;50.934;6.934;2023-06-01T12:05:49;22.40;80.00
5176;DHT22;2607;50.934;6.934;2023-06-01T12:08:23;22.60;77.60
5176;DHT22;2607;50.934;6.934;2023-06-01T12:10:50;22.60;77.90
5176;DHT22;2607;50.934;6.934;2023-06-01T12:13:17;22.60;78.00
5176;DHT22;2607;50.934;6.934;2023-06-01T12:15:44;22.70;78.30
5176;DHT22;2607;50.934;6.934;2023-06-01T12:18:10;22.80;77.40
5176;DHT22;2607;50.934;6.934;2023-06-01T12:20:41;22.90;76.90
5176;DHT22;2607;50.934;6.934;2023-06-01T12:25:59;22.90;75.80
5176;DHT22;2607;50.934;6.934;2023-06-01T12:28:25;22.90;74.40
5176;DHT22;2607;50.934;6.934;2023-06-01T12:31:14;23.00;73.90
5176;DHT22;2607;50.934;6.934;2023-06-01T12:33:41;23.00;73.50
5176;DHT22;2607;50.934;6.934;2023-06-01T12:36:07;23.10;72.90
5176;DHT22;2607;50.934;6.934;2023-06-01T12:38:37;23.00;72.30
5176;DHT22;2607;50.934;6.934;2023-06-01T12:41:11;23.00;72.60
5176;DHT22;2607;50.934;6.934;2023-06-01T12:43:47;23.10;72.90
5176;DHT22;2607;50.934;6.934;2023-06-01T12:48:44;23.00;73.30
5176;DHT22;2607;50.934;6.934;2023-06-01T12:51:12;23.10;73.00
5176;DHT22;2607;50.934;6.934;2023-06-01T12:53:39;23.20;72.30
5176;DHT22;2607;50.934;6.934;2023-06-01T12:56:05;23.20;72.30
5176;DHT22;2607;50.934;6.934;2023-06-01T12:58:31;23.20;72.80
5176;DHT22;2607;50.934;6.934;2023-06-01T13:00:57;23.20;72.80
5176;DHT22;2607;50.934;6.934;2023-06-01T13:03:23;23.20;73.30
5176;DHT22;2607;50.934;6.934;2023-06-01T13:05:48;23.30;73.50
5176;DHT22;2607;50.934;6.934;2023-06-01T13:08:15;23.40;72.70
5176;DHT22;2607;50.934;6.934;2023-06-01T13:10:42;23.40;71.40
5176;DHT22;2607;50.934;6.934;2023-06-01T13:13:08;23.30;71.50
5176;DHT22;2607;50.934;6.934;2023-06-01T13:15:34;23.40;71.80
5176;DHT22;2607;50.934;6.934;2023-06-01T13:18:01;23.50;71.30
5176;DHT22;2607;50.934;6.934;2023-06-01T13:20:26;23.40;71.10
5176;DHT22;2607;50.934;6.934;2023-06-01T13:22:52;23.40;70.30
5176;DHT22;2607;50.934;6.934;2023-06-01T13:25:18;23.40;70.90
5176;DHT22;2607;50.934;6.934;2023-06-01T13:27:45;23.40;71.40
5176;DHT22;2607;50.934;6.934;2023-06-01T13:30:11;23.50;71.70
5176;DHT22;2607;50.934;6.934;2023-06-01T13:32:37;23.50;71.60
5176;DHT22;2607;50.934;6.934;2023-06-01T13:35:03;23.50;71.00
5176;DHT22;2607;50.934;6.934;2023-06-01T13:37:29;23.50;71.20
5176;DHT22;2607;50.934;6.934;2023-06-01T13:39:54;23.50;70.80
5176;DHT22;2607;50.934;6.934;2023-06-01T13:42:20;23.50;71.10
5176;DHT22;2607;50.934;6.934;2023-06-01T13:44:46;23.40;70.60
5176;DHT22;2607;50.934;6.934;2023-06-01T13:47:15;23.50;70.00
5176;DHT22;2607;50.934;6.934;2023-06-01T13:49:41;23.50;69.60
5176;DHT22;2607;50.934;6.934;2023-06-01T13:52:07;23.50;69.00
5176;DHT22;2607;50.934;6.934;2023-06-01T13:54:34;23.50;68.70
5176;DHT22;2607;50.934;6.934;2023-06-01T13:57:00;23.50;69.20
5176;DHT22;2607;50.934;6.934;2023-06-01T13:59:28;23.50;69.70
5176;DHT22;2607;50.934;6.934;2023-06-01T14:01:56;23.40;69.80
5176;DHT22;2607;50.934;6.934;2023-06-01T14:04:22;23.40;69.80
5176;DHT22;2607;50.934;6.934;2023-06-01T14:06:47;23.40;69.90
5176;DHT22;2607;50.934;6.934;2023-06-01T14:09:18;23.40;69.60
5176;DHT22;2607;50.934;6.934;2023-06-01T14:11:43;23.40;69.70
5176;DHT22;2607;50.934;6.934;2023-06-01T14:14:09;23.40;70.40
5176;DHT22;2607;50.934;6.934;2023-06-01T14:16:35;23.40;70.80
5176;DHT22;2607;50.934;6.934;2023-06-01T14:19:01;23.30;70.80
5176;DHT22;2607;50.934;6.934;2023-06-01T14:21:26;23.40;71.10
5176;DHT22;2607;50.934;6.934;2023-06-01T14:23:54;23.40;70.30
5176;DHT22;2607;50.934;6.934;2023-06-01T14:26:19;23.50;70.10
5176;DHT22;2607;50.934;6.934;2023-06-01T14:28:47;23.50;70.40
5176;DHT22;2607;50.934;6.934;2023-06-01T14:31:13;23.50;70.90
5176;DHT22;2607;50.934;6.934;2023-06-01T14:33:38;23.50;71.50
5176;DHT22;2607;50.934;6.934;2023-06-01T14:36:04;23.50;71.50
5176;DHT22;2607;50.934;6.934;2023-06-01T14:38:30;23.50;71.90
5176;DHT22;2607;50.934;6.934;2023-06-01T14:40:56;23.50;72.40
5176;DHT22;2607;50.934;6.934;2023-06-01T14:43:21;23.50;72.20
5176;DHT22;2607;50.934;6.934;2023-06-01T14:45:47;23.50;72.00
5176;DHT22;2607;50.934;6.934;2023-06-01T14:48:13;23.50;72.10
5176;DHT22;2607;50.934;6.934;2023-06-01T14:50:38;23.50;72.10
5176;DHT22;2607;50.934;6.934;2023-06-01T14:53:04;23.40;72.30
5176;DHT22;2607;50.934;6.934;2023-06-01T14:55:29;23.30;72.80
5176;DHT22;2607;50.934;6.934;2023-06-01T14:57:55;23.40;73.20
5176;DHT22;2607;50.934;6.934;2023-06-01T15:00:21;23.30;72.90
5176;DHT22;2607;50.934;6.934;2023-06-01T15:02:47;23.30;73.00
5176;DHT22;2607;50.934;6.934;2023-06-01T15:05:13;23.20;73.50
5176;DHT22;2607;50.934;6.934;2023-06-01T15:07:38;23.20;73.60
5176;DHT22;2607;50.934;6.934;2023-06-01T15:10:05;23.20;73.40
5176;DHT22;2607;50.934;6.934;2023-06-01T15:12:31;23.20;73.70
5176;DHT22;2607;50.934;6.934;2023-06-01T15:14:56;23.30;73.40
5176;DHT22;2607;50.934;6.934;2023-06-01T15:17:22;23.20;73.30
5176;DHT22;2607;50.934;6.934;2023-06-01T15:19:47;23.10;72.50
5176;DHT22;2607;50.934;6.934;2023-06-01T15:22:14;23.20;71.90
5176;DHT22;2607;50.934;6.934;2023-06-01T15:24:40;23.10;72.10
5176;DHT22;2607;50.934;6.934;2023-06-01T15:27:06;23.10;72.20
5176;DHT22;2607;50.934;6.934;2023-06-01T15:29:33;23.00;72.10
5176;DHT22;2607;50.934;6.934;2023-06-01T15:31:58;23.00;71.80
5176;DHT22;2607;50.934;6.934;2023-06-01T15:34:24;22.90;72.30
5176;DHT22;2607;50.934;6.934;2023-06-01T15:36:49;22.90;73.20
5176;DHT22;2607;50.934;6.934;2023-06-01T15:39:15;22.80;73.00
5176;DHT22;2607;50.934;6.934;2023-06-01T15:41:41;22.80;73.00
5176;DHT22;2607;50.934;6.934;2023-06-01T15:44:07;22.80;73.50
5176;DHT22;2607;50.934;6.934;2023-06-01T15:46:33;22.80;73.60
5176;DHT22;2607;50.934;6.934;2023-06-01T15:48:58;22.70;73.30
5176;DHT22;2607;50.934;6.934;2023-06-01T15:51:24;22.80;71.80
5176;DHT22;2607;50.934;6.934;2023-06-01T15:53:50;22.90;71.80
5176;DHT22;2607;50.934;6.934;2023-06-01T15:56:16;22.90;71.60
5176;DHT22;2607;50.934;6.934;2023-06-01T15:58:42;22.70;72.10
5176;DHT22;2607;50.934;6.934;2023-06-01T16:01:08;22.70;72.20
5176;DHT22;2607;50.934;6.934;2023-06-01T16:03:34;22.70;72.00
5176;DHT22;2607;50.934;6.934;2023-06-01T16:06:00;22.70;72.00
5176;DHT22;2607;50.934;6.934;2023-06-01T16:08:26;22.70;72.00
5176;DHT22;2607;50.934;6.934;2023-06-01T16:10:51;22.70;72.40
5176;DHT22;2607;50.934;6.934;2023-06-01T16:13:17;22.70;72.20
5176;DHT22;2607;50.934;6.934;2023-06-01T16:15:43;22.80;71.60
5176;DHT22;2607;50.934;6.934;2023-06-01T16:18:08;22.70;71.30
5176;DHT22;2607;50.934;6.934;2023-06-01T16:20:34;22.80;70.80
5176;DHT22;2607;50.934;6.934;2023-06-01T16:22:59;22.80;70.70
5176;DHT22;2607;50.934;6.934;2023-06-01T16:25:25;22.70;71.10
5176;DHT22;2607;50.934;6.934;2023-06-01T16:27:52;22.70;71.50
5176;DHT22;2607;50.934;6.934;2023-06-01T16:30:18;22.70;71.70
5176;DHT22;2607;50.934;6.934;2023-06-01T16:32:43;22.70;71.60
5176;DHT22;2607;50.934;6.934;2023-06-01T16:35:09;22.70;71.90
5176;DHT22;2607;50.934;6.934;2023-06-01T16:37:35;22.70;72.20
5176;DHT22;2607;50.934;6.934;2023-06-01T16:40:00;22.60;72.50
5176;DHT22;2607;50.934;6.934;2023-06-01T16:42:26;22.60;72.60
5176;DHT22;2607;50.934;6.934;2023-06-01T16:44:52;22.70;72.80
5176;DHT22;2607;50.934;6.934;2023-06-01T16:47:17;22.60;73.00
5176;DHT22;2607;50.934;6.934;2023-06-01T16:49:43;22.50;73.40